sensor_id;sensor_type;location;lat;lon;timestamp;temperature;humidity
32612;DHT22;19030;49.478;8.986;2023-01-15T00:01:38;9.80;99.90
32612;DHT22;19030;49.478;8.986;2023-01-15T00:03:38;9.80;99.90
32612;DHT22;19030;49.478;8.986;2023-01-15T00:05:39;9.80;99.90
32612;DHT22;19030;49.478;8.986;2023-01-15T00:07:40;9.80;99.90
32612;DHT22;19030;49.478;8.986;2023-01-15T00:09:40;9.80;99.90
32612;DHT22;19030;49.478;8.986;2023-01-15T00:11:41;9.80;99.90
32612;DHT22;19030;49.478;8.986;2023-01-15T00:13:41;9.70;99.90
32612;DHT22;19030;49.478;8.986;2023-01-15T00:15:42;9.70;99.90
32612;DHT22;19030;49.478;8.986;2023-01-15T00:17:43;9.70;99.90
32612;DHT22;19030;49.478;8.986;2023-01-15T00:19:43;9.80;99.90
32612;DHT22;19030;49.478;8.986;2023-01-15T00:21:44;9.80;99.90
32612;DHT22;19030;49.478;8.986;2023-01-15T00:23:45;9.90;99.90
32612;DHT22;19030;49.478;8.986;2023-01-15T00:26:04;9.90;99.90
32612;DHT22;19030;49.478;8.986;2023-01-15T00:28:23;9.90;99.90
32612;DHT22;19030;49.478;8.986;2023-01-15T00:30:24;9.90;99.90
32612;DHT22;19030;49.478;8.986;2023-01-15T00:32:24;9.80;99.90
32612;DHT22;19030;49.478;8.986;2023-01-15T00:34:28;9.80;99.90
32612;DHT22;19030;49.478;8.986;2023-01-15T00:36:30;9.80;99.90
32612;DHT22;19030;49.478;8.986;2023-01-15T00:38:30;9.80;99.90
32612;DHT22;19030;49.478;8.986;2023-01-15T00:40:31;9.80;99.90
32612;DHT22;19030;49.478;8.986;2023-01-15T00:42:32;9.80;99.90
32612;DHT22;19030;49.478;8.986;2023-01-15T00:44:32;9.80;99.90
32612;DHT22;19030;49.478;8.986;2023-01-15T00:46:33;9.90;99.90
32612;DHT22;19030;49.478;8.986;2023-01-15T00:48:34;9.90;99.90
32612;DHT22;19030;49.478;8.986;2023-01-15T00:50:35;9.80;99.90
32612;DHT22;19030;49.478;8.986;2023-01-15T00:52:36;9.80;99.90
32612;DHT22;19030;49.478;8.986;2023-01-15T00:54:37;9.80;99.90
32612;DHT22;19030;49.478;8.986;2023-01-15T00:56:37;9.80;99.90
32612;DHT22;19030;49.478;8.986;2023-01-15T00:58:38;9.80;99.90
32612;DHT22;19030;49.478;8.986;2023-01-15T01:00:38;9.80;99.90
32612;DHT22;19030;49.478;8.986;2023-01-15T01:02:39;9.80;99.90
32612;DHT22;19030;49.478;8.986;2023-01-15T01:04:41;9.80;99.90
32612;DHT22;19030;49.478;8.986;2023-01-15T01:06:42;9.80;99.90
32612;DHT22;19030;49.478;8.986;2023-01-15T01:08:43;9.90;99.90
32612;DHT22;19030;49.478;8.986;2023-01-15T01:10:46;9.90;99.90
32612;DHT22;19030;49.478;8.986;2023-01-15T01:12:47;9.90;99.90
32612;DHT22;19030;49.478;8.986;2023-01-15T01:14:51;9.90;99.90
32612;DHT22;19030;49.478;8.986;2023-01-15T01:16:51;10.00;99.90
32612;DHT22;19030;49.478;8.986;2023-01-15T01:18:53;10.10;99.90
32612;DHT22;19030;49.478;8.986;2023-01-15T01:20:54;10.10;99.90
32612;DHT22;19030;49.478;8.986;2023-01-15T01:22:55;10.00;99.90
32612;DHT22;19030;49.478;8.986;2023-01-15T01:24:56;10.10;99.90
32612;DHT22;19030;49.478;8.986;2023-01-15T01:26:56;10.00;99.90
32612;DHT22;19030;49.478;8.986;2023-01-15T01:28:57;10.00;99.90
32612;DHT22;19030;49.478;8.986;2023-01-15T01:30:58;10.00;99.90
32612;DHT22;19030;49.478;8.986;2023-01-15T01:32:58;10.00;99.90
32612;DHT22;19030;49.478;8.986;2023-01-15T01:34:59;10.00;99.90
32612;DHT22;19030;49.478;8.986;2023-01-15T01:36:59;10.00;99.90
32612;DHT22;19030;49.478;8.986;2023-01-15T01:39:01;10.00;99.90
32612;DHT22;19030;49.478;8.986;2023-01-15T01:41:02;10.00;99.90
32612;DHT22;19030;49.478;8.986;2023-01-15T01:43:04;10.00;99.90
32612;DHT22;19030;49.478;8.986;2023-01-15T01:47:28;10.00;99.90
32612;DHT22;19030;49.478;8.986;2023-01-15T01:49:29;10.00;99.90
32612;DHT22;19030;49.478;8.986;2023-01-15T01:51:34;9.90;99.90
32612;DHT22;19030;49.478;8.986;2023-01-15T01:53:36;9.90;99.90
32612;DHT22;19030;49.478;8.986;2023-01-15T01:55:38;9.90;99.90
32612;DHT22;19030;49.478;8.986;2023-01-15T01:57:39;10.00;99.90
32612;DHT22;19030;49.478;8.986;2023-01-15T01:59:40;10.00;99.90
32612;DHT22;19030;49.478;8.986;2023-01-15T02:01:40;9.90;99.90
32612;DHT22;19030;49.478;8.986;2023-01-15T02:03:41;10.00;99.90
32612;DHT22;19030;49.478;8.986;2023-01-15T02:05:49;10.00;99.90
32612;DHT22;19030;49.478;8.986;2023-01-15T02:07:51;9.90;99.90
32612;DHT22;19030;49.478;8.986;2023-01-15T02:09:52;10.00;99.90
32612;DHT22;19030;49.478;8.986;2023-01-15T02:11:56;10.00;99.90
32612;DHT22;19030;49.478;8.986;2023-01-15T02:16:15;10.00;99.90
32612;DHT22;19030;49.478;8.986;2023-01-15T02:20:29;10.00;99.90
32612;DHT22;19030;49.478;8.986;2023-01-15T02:22:47;10.00;99.90
32612;DHT22;19030;49.478;8.986;2023-01-15T02:27:13;9.90;99.90
32612;DHT22;19030;49.478;8.986;2023-01-15T02:29:22;10.00;99.90
32612;DHT22;19030;49.478;8.986;2023-01-15T02:31:36;9.90;99.90
32612;DHT22;19030;49.478;8.986;2023-01-15T02:33:41;9.90;99.90
32612;DHT22;19030;49.478;8.986;2023-01-15T02:35:47;10.00;99.90
32612;DHT22;19030;49.478;8.986;2023-01-15T02:37:53;10.00;99.90
32612;DHT22;19030;49.478;8.986;2023-01-15T02:39:58;9.90;99.90
32612;DHT22;19030;49.478;8.986;2023-01-15T02:42:03;9.90;99.90
32612;DHT22;19030;49.478;8.986;2023-01-15T02:44:15;10.00;99.90
32612;DHT22;19030;49.478;8.986;2023-01-15T02:46:20;10.00;99.90
32612;DHT22;19030;49.478;8.986;2023-01-15T02:48:25;10.00;99.90
32612;DHT22;19030;49.478;8.986;2023-01-15T02:50:32;10.00;99.90
32612;DHT22;19030;49.478;8.986;2023-01-15T02:52:45;10.00;99.90
32612;DHT22;19030;49.478;8.986;2023-01-15T02:54:57;10.00;99.90
32612;DHT22;19030;49.478;8.986;2023-01-15T02:57:01;10.00;99.90
32612;DHT22;19030;49.478;8.986;2023-01-15T02:59:05;10.00;99.90
32612;DHT22;19030;49.478;8.986;2023-01-15T03:01:19;10.00;99.90
32612;DHT22;19030;49.478;8.986;2023-01-15T03:03:33;10.00;99.90
32612;DHT22;19030;49.478;8.986;2023-01-15T03:05:44;10.00;99.90
32612;DHT22;19030;49.478;8.986;2023-01-15T03:07:51;10.00;99.90
32612;DHT22;19030;49.478;8.986;2023-01-15T03:09:55;10.10;99.90
32612;DHT22;19030;49.478;8.986;2023-01-15T03:12:13;10.10;99.90
32612;DHT22;19030;49.478;8.986;2023-01-15T03:17:00;10.00;99.90
32612;DHT22;19030;49.478;8.986;2023-01-15T03:21:33;10.10;99.90
32612;DHT22;19030;49.478;8.986;2023-01-15T03:23:38;10.00;99.90
32612;DHT22;19030;49.478;8.986;2023-01-15T03:25:46;10.10;99.90
32612;DHT22;19030;49.478;8.986;2023-01-15T03:27:49;10.10;99.90
32612;DHT22;19030;49.478;8.986;2023-01-15T03:29:57;10.10;99.90
32612;DHT22;19030;49.478;8.986;2023-01-15T03:31:59;10.10;99.90
32612;DHT22;19030;49.478;8.986;2023-01-15T03:34:02;10.10;99.90
32612;DHT22;19030;49.478;8.986;2023-01-15T03:36:03;10.00;99.90
32612;DHT22;19030;49.478;8.986;2023-01-15T03:38:15;10.00;99.90
32612;DHT22;19030;49.478;8.986;2023-01-15T03:40:20;10.00;99.90
32612;DHT22;19030;49.478;8.986;2023-01-15T03:42:51;10.00;99.90
32612;DHT22;19030;49.478;8.986;2023-01-15T03:45:23;9.90;99.90
32612;DHT22;19030;49.478;8.986;2023-01-15T03:49:55;9.90;99.90
32612;DHT22;19030;49.478;8.986;2023-01-15T03:52:31;9.90;99.90
32612;DHT22;19030;49.478;8.986;2023-01-15T03:55:03;9.90;99.90
32612;DHT22;19030;49.478;8.986;2023-01-15T03:57:14;9.90;99.90
32612;DHT22;19030;49.478;8.986;2023-01-15T03:59:22;9.80;99.90
32612;DHT22;19030;49.478;8.986;2023-01-15T04:01:35;9.70;99.90
32612;DHT22;19030;49.478;8.986;2023-01-15T04:03:37;9.50;99.90
32612;DHT22;19030;49.478;8.986;2023-01-15T04:05:39;9.40;99.90
32612;DHT22;19030;49.478;8.986;2023-01-15T04:07:42;9.30;99.90
32612;DHT22;19030;49.478;8.986;2023-01-15T04:09:44;9.20;99.90
32612;DHT22;19030;49.478;8.986;2023-01-15T04:11:46;9.10;99.90
32612;DHT22;19030;49.478;8.986;2023-01-15T04:13:46;9.10;99.90
32612;DHT22;19030;49.478;8.986;2023-01-15T04:16:04;9.00;99.90
32612;DHT22;19030;49.478;8.986;2023-01-15T04:18:05;8.90;99.90
32612;DHT22;19030;49.478;8.986;2023-01-15T04:20:06;8.90;99.90
32612;DHT22;19030;49.478;8.986;2023-01-15T04:22:08;8.80;99.90
32612;DHT22;19030;49.478;8.986;2023-01-15T04:24:09;8.80;99.90
32612;DHT22;19030;49.478;8.986;2023-01-15T04:26:10;8.80;99.90
32612;DHT22;19030;49.478;8.986;2023-01-15T04:28:11;8.70;99.90
32612;DHT22;19030;49.478;8.986;2023-01-15T04:30:12;8.60;99.90
32612;DHT22;19030;49.478;8.986;2023-01-15T04:32:13;8.60;99.90
32612;DHT22;19030;49.478;8.986;2023-01-15T04:34:14;8.60;99.90
32612;DHT22;19030;49.478;8.986;2023-01-15T04:36:15;8.50;99.90
32612;DHT22;19030;49.478;8.986;2023-01-15T04:38:15;8.50;99.90
32612;DHT22;19030;49.478;8.986;2023-01-15T04:40:17;8.50;99.90
32612;DHT22;19030;49.478;8.986;2023-01-15T04:42:36;8.50;99.90
32612;DHT22;19030;49.478;8.986;2023-01-15T04:44:55;8.50;99.90
32612;DHT22;19030;49.478;8.986;2023-01-15T04:46:56;8.50;99.90
32612;DHT22;19030;49.478;8.986;2023-01-15T04:48:59;8.40;99.90
32612;DHT22;19030;49.478;8.986;2023-01-15T04:51:03;8.50;99.90
32612;DHT22;19030;49.478;8.986;2023-01-15T04:53:04;8.40;99.90
32612;DHT22;19030;49.478;8.986;2023-01-15T04:55:04;8.40;99.90
32612;DHT22;19030;49.478;8.986;2023-01-15T04:57:05;8.40;99.90
32612;DHT22;19030;49.478;8.986;2023-01-15T04:59:06;8.40;99.90
32612;DHT22;19030;49.478;8.986;2023-01-15T05:01:12;8.40;99.90
32612;DHT22;19030;49.478;8.986;2023-01-15T05:03:12;8.40;99.90
32612;DHT22;19030;49.478;8.986;2023-01-15T05:05:13;8.30;99.90
32612;DHT22;19030;49.478;8.986;2023-01-15T05:07:14;8.30;99.90
32612;DHT22;19030;49.478;8.986;2023-01-15T05:09:14;8.20;99.90
32612;DHT22;19030;49.478;8.986;2023-01-15T05:11:15;8.20;99.90
32612;DHT22;19030;49.478;8.986;2023-01-15T05:13:16;8.20;99.90
32612;DHT22;19030;49.478;8.986;2023-01-15T05:15:16;8.10;99.90
32612;DHT22;19030;49.478;8.986;2023-01-15T05:17:17;8.10;99.90
32612;DHT22;19030;49.478;8.986;2023-01-15T05:19:18;8.10;99.90
32612;DHT22;19030;49.478;8.986;2023-01-15T05:21:24;8.10;99.90
32612;DHT22;19030;49.478;8.986;2023-01-15T05:23:25;8.10;99.90
32612;DHT22;19030;49.478;8.986;2023-01-15T05:25:25;8.10;99.90
32612;DHT22;19030;49.478;8.986;2023-01-15T05:27:26;8.10;99.90
32612;DHT22;19030;49.478;8.986;2023-01-15T05:29:26;8.10;99.90
32612;DHT22;19030;49.478;8.986;2023-01-15T05:31:28;8.00;99.90
32612;DHT22;19030;49.478;8.986;2023-01-15T05:33:28;8.00;99.90
32612;DHT22;19030;49.478;8.986;2023-01-15T05:35:29;8.00;99.90
32612;DHT22;19030;49.478;8.986;2023-01-15T05:37:30;7.90;99.90
32612;DHT22;19030;49.478;8.986;2023-01-15T05:39:30;7.90;99.90
32612;DHT22;19030;49.478;8.986;2023-01-15T05:41:31;7.90;99.90
32612;DHT22;19030;49.478;8.986;2023-01-15T05:43:50;7.90;99.90
32612;DHT22;19030;49.478;8.986;2023-01-15T05:45:50;7.90;99.90
32612;DHT22;19030;49.478;8.986;2023-01-15T05:47:54;7.80;99.90
32612;DHT22;19030;49.478;8.986;2023-01-15T05:49:54;7.70;99.90
32612;DHT22;19030;49.478;8.986;2023-01-15T05:51:55;7.70;99.90
32612;DHT22;19030;49.478;8.986;2023-01-15T05:53:56;7.70;99.90
32612;DHT22;19030;49.478;8.986;2023-01-15T05:56:00;7.60;99.90
32612;DHT22;19030;49.478;8.986;2023-01-15T05:58:00;7.60;99.90
32612;DHT22;19030;49.478;8.986;2023-01-15T06:00:02;7.60;99.90
32612;DHT22;19030;49.478;8.986;2023-01-15T06:02:13;7.60;99.90
32612;DHT22;19030;49.478;8.986;2023-01-15T06:04:14;7.60;99.90
32612;DHT22;19030;49.478;8.986;2023-01-15T06:06:17;7.60;99.90
32612;DHT22;19030;49.478;8.986;2023-01-15T06:08:18;7.50;99.90
32612;DHT22;19030;49.478;8.986;2023-01-15T06:10:18;7.60;99.90
32612;DHT22;19030;49.478;8.986;2023-01-15T06:12:19;7.50;99.90
32612;DHT22;19030;49.478;8.986;2023-01-15T06:14:20;7.50;99.90
32612;DHT22;19030;49.478;8.986;2023-01-15T06:16:21;7.50;99.90
32612;DHT22;19030;49.478;8.986;2023-01-15T06:18:22;7.50;99.90
32612;DHT22;19030;49.478;8.986;2023-01-15T06:20:23;7.50;99.90
32612;DHT22;19030;49.478;8.986;2023-01-15T06:22:23;7.40;99.90
32612;DHT22;19030;49.478;8.986;2023-01-15T06:24:24;7.40;99.90
32612;DHT22;19030;49.478;8.986;2023-01-15T06:26:25;7.40;99.90
32612;DHT22;19030;49.478;8.986;2023-01-15T06:28:25;7.40;99.90
32612;DHT22;19030;49.478;8.986;2023-01-15T06:30:26;7.40;99.90
32612;DHT22;19030;49.478;8.986;2023-01-15T06:32:26;7.40;99.90
32612;DHT22;19030;49.478;8.986;2023-01-15T06:34:27;7.40;99.90
32612;DHT22;19030;49.478;8.986;2023-01-15T06:36:28;7.40;99.90
32612;DHT22;19030;49.478;8.986;2023-01-15T06:38:28;7.40;99.90
32612;DHT22;19030;49.478;8.986;2023-01-15T06:40:29;7.40;99.90
32612;DHT22;19030;49.478;8.986;2023-01-15T06:42:29;7.40;99.90
32612;DHT22;19030;49.478;8.986;2023-01-15T06:44:48;7.40;99.90
32612;DHT22;19030;49.478;8.986;2023-01-15T06:47:13;7.40;99.90
32612;DHT22;19030;49.478;8.986;2023-01-15T06:49:20;7.40;99.90
32612;DHT22;19030;49.478;8.986;2023-01-15T06:51:20;7.40;99.90
32612;DHT22;19030;49.478;8.986;2023-01-15T06:53:21;7.40;99.90
32612;DHT22;19030;49.478;8.986;2023-01-15T06:55:22;7.40;99.90
32612;DHT22;19030;49.478;8.986;2023-01-15T06:57:23;7.40;99.90
32612;DHT22;19030;49.478;8.986;2023-01-15T06:59:24;7.30;99.90
32612;DHT22;19030;49.478;8.986;2023-01-15T07:01:24;7.30;99.90
32612;DHT22;19030;49.478;8.986;2023-01-15T07:03:30;7.30;99.90
32612;DHT22;19030;49.478;8.986;2023-01-15T07:05:31;7.30;99.90
32612;DHT22;19030;49.478;8.986;2023-01-15T07:07:33;7.30;99.90
32612;DHT22;19030;49.478;8.986;2023-01-15T07:09:33;7.30;99.90
32612;DHT22;19030;49.478;8.986;2023-01-15T07:11:34;7.30;99.90
32612;DHT22;19030;49.478;8.986;2023-01-15T07:13:35;7.30;99.90
32612;DHT22;19030;49.478;8.986;2023-01-15T07:15:39;7.30;99.90
32612;DHT22;19030;49.478;8.986;2023-01-15T07:17:40;7.20;99.90
32612;DHT22;19030;49.478;8.986;2023-01-15T07:19:40;7.20;99.90
32612;DHT22;19030;49.478;8.986;2023-01-15T07:21:41;7.10;99.90
32612;DHT22;19030;49.478;8.986;2023-01-15T07:23:41;7.20;99.90
32612;DHT22;19030;49.478;8.986;2023-01-15T07:25:42;7.10;99.90
32612;DHT22;19030;49.478;8.986;2023-01-15T07:27:45;7.10;99.90
32612;DHT22;19030;49.478;8.986;2023-01-15T07:29:46;7.10;99.90
32612;DHT22;19030;49.478;8.986;2023-01-15T07:31:47;7.00;99.90
32612;DHT22;19030;49.478;8.986;2023-01-15T07:33:48;7.00;99.90
32612;DHT22;19030;49.478;8.986;2023-01-15T07:35:49;7.00;99.90
32612;DHT22;19030;49.478;8.986;2023-01-15T07:37:52;7.00;99.90
32612;DHT22;19030;49.478;8.986;2023-01-15T07:39:53;7.00;99.90
32612;DHT22;19030;49.478;8.986;2023-01-15T07:41:53;6.90;99.90
32612;DHT22;19030;49.478;8.986;2023-01-15T07:44:12;7.00;99.90
32612;DHT22;19030;49.478;8.986;2023-01-15T07:46:32;6.90;99.90
32612;DHT22;19030;49.478;8.986;2023-01-15T07:48:51;6.90;99.90
32612;DHT22;19030;49.478;8.986;2023-01-15T07:51:11;6.90;99.90
32612;DHT22;19030;49.478;8.986;2023-01-15T07:53:11;6.90;99.90
32612;DHT22;19030;49.478;8.986;2023-01-15T07:55:12;6.90;99.90
32612;DHT22;19030;49.478;8.986;2023-01-15T07:57:15;6.80;99.90
32612;DHT22;19030;49.478;8.986;2023-01-15T07:59:16;6.80;99.90
32612;DHT22;19030;49.478;8.986;2023-01-15T08:01:17;6.80;99.90
32612;DHT22;19030;49.478;8.986;2023-01-15T08:03:18;6.80;99.90
32612;DHT22;19030;49.478;8.986;2023-01-15T08:05:18;6.70;99.90
32612;DHT22;19030;49.478;8.986;2023-01-15T08:07:19;6.70;99.90
32612;DHT22;19030;49.478;8.986;2023-01-15T08:09:19;6.70;99.90
32612;DHT22;19030;49.478;8.986;2023-01-15T08:11:20;6.70;99.90
32612;DHT22;19030;49.478;8.986;2023-01-15T08:13:39;6.70;99.90
32612;DHT22;19030;49.478;8.986;2023-01-15T08:15:59;6.70;99.90
32612;DHT22;19030;49.478;8.986;2023-01-15T08:17:59;6.70;99.90
32612;DHT22;19030;49.478;8.986;2023-01-15T08:20:01;6.60;99.90
32612;DHT22;19030;49.478;8.986;2023-01-15T08:22:02;6.70;99.90
32612;DHT22;19030;49.478;8.986;2023-01-15T08:24:02;6.70;99.90
32612;DHT22;19030;49.478;8.986;2023-01-15T08:26:03;6.60;99.90
32612;DHT22;19030;49.478;8.986;2023-01-15T08:28:05;6.70;99.90
32612;DHT22;19030;49.478;8.986;2023-01-15T08:30:09;6.70;99.90
32612;DHT22;19030;49.478;8.986;2023-01-15T08:32:10;6.60;99.90
32612;DHT22;19030;49.478;8.986;2023-01-15T08:34:11;6.60;99.90
32612;DHT22;19030;49.478;8.986;2023-01-15T08:36:11;6.50;99.90
32612;DHT22;19030;49.478;8.986;2023-01-15T08:38:12;6.50;99.90
32612;DHT22;19030;49.478;8.986;2023-01-15T08:40:13;6.50;99.90
32612;DHT22;19030;49.478;8.986;2023-01-15T08:42:13;6.40;99.90
32612;DHT22;19030;49.478;8.986;2023-01-15T08:44:14;6.40;99.90
32612;DHT22;19030;49.478;8.986;2023-01-15T08:46:16;6.40;99.90
32612;DHT22;19030;49.478;8.986;2023-01-15T08:48:17;6.40;99.90
32612;DHT22;19030;49.478;8.986;2023-01-15T08:50:17;6.40;99.90
32612;DHT22;19030;49.478;8.986;2023-01-15T08:52:18;6.40;99.90
32612;DHT22;19030;49.478;8.986;2023-01-15T08:54:20;6.40;99.90
32612;DHT22;19030;49.478;8.986;2023-01-15T08:56:21;6.40;99.90
32612;DHT22;19030;49.478;8.986;2023-01-15T08:58:21;6.40;99.90
32612;DHT22;19030;49.478;8.986;2023-01-15T09:00:22;6.30;99.90
32612;DHT22;19030;49.478;8.986;2023-01-15T09:02:23;6.30;99.90
32612;DHT22;19030;49.478;8.986;2023-01-15T09:04:24;6.30;99.90
32612;DHT22;19030;49.478;8.986;2023-01-15T09:06:25;6.30;99.90
32612;DHT22;19030;49.478;8.986;2023-01-15T09:08:27;6.30;99.90
32612;DHT22;19030;49.478;8.986;2023-01-15T09:10:28;6.30;99.90
32612;DHT22;19030;49.478;8.986;2023-01-15T09:12:28;6.30;99.90
32612;DHT22;19030;49.478;8.986;2023-01-15T09:14:29;6.30;99.90
32612;DHT22;19030;49.478;8.986;2023-01-15T09:16:30;6.30;99.90
32612;DHT22;19030;49.478;8.986;2023-01-15T09:18:32;6.30;99.90
32612;DHT22;19030;49.478;8.986;2023-01-15T09:20:33;6.30;99.90
32612;DHT22;19030;49.478;8.986;2023-01-15T09:22:34;6.20;99.90
32612;DHT22;19030;49.478;8.986;2023-01-15T09:24:34;6.30;99.90
32612;DHT22;19030;49.478;8.986;2023-01-15T09:26:37;6.30;99.90
32612;DHT22;19030;49.478;8.986;2023-01-15T09:28:37;6.30;99.90
32612;DHT22;19030;49.478;8.986;2023-01-15T09:30:38;6.30;99.90
32612;DHT22;19030;49.478;8.986;2023-01-15T09:32:38;6.30;99.90
32612;DHT22;19030;49.478;8.986;2023-01-15T09:34:39;6.20;99.90
32612;DHT22;19030;49.478;8.986;2023-01-15T09:36:39;6.30;99.90
32612;DHT22;19030;49.478;8.986;2023-01-15T09:38:40;6.30;99.90
32612;DHT22;19030;49.478;8.986;2023-01-15T09:40:47;6.20;99.90
32612;DHT22;19030;49.478;8.986;2023-01-15T09:42:54;6.30;99.90
32612;DHT22;19030;49.478;8.986;2023-01-15T09:45:22;6.30;99.90
32612;DHT22;19030;49.478;8.986;2023-01-15T09:47:33;6.20;99.90
32612;DHT22;19030;49.478;8.986;2023-01-15T09:52:31;6.30;99.90
32612;DHT22;19030;49.478;8.986;2023-01-15T09:54:58;6.20;99.90
32612;DHT22;19030;49.478;8.986;2023-01-15T09:57:03;6.20;99.90
32612;DHT22;19030;49.478;8.986;2023-01-15T09:59:30;6.20;99.90
32612;DHT22;19030;49.478;8.986;2023-01-15T10:01:32;6.20;99.90
32612;DHT22;19030;49.478;8.986;2023-01-15T10:03:46;6.20;99.90
32612;DHT22;19030;49.478;8.986;2023-01-15T10:08:11;6.20;99.90
32612;DHT22;19030;49.478;8.986;2023-01-15T10:10:17;6.20;99.90
32612;DHT22;19030;49.478;8.986;2023-01-15T10:12:24;6.20;99.90
32612;DHT22;19030;49.478;8.986;2023-01-15T10:14:58;6.20;99.90
32612;DHT22;19030;49.478;8.986;2023-01-15T10:17:01;6.20;99.90
32612;DHT22;19030;49.478;8.986;2023-01-15T10:19:02;6.20;99.90
32612;DHT22;19030;49.478;8.986;2023-01-15T10:23:48;6.20;99.90
32612;DHT22;19030;49.478;8.986;2023-01-15T10:25:52;6.20;99.90
32612;DHT22;19030;49.478;8.986;2023-01-15T10:27:57;6.20;99.90
32612;DHT22;19030;49.478;8.986;2023-01-15T10:30:24;6.20;99.90
32612;DHT22;19030;49.478;8.986;2023-01-15T10:32:40;6.20;99.90
32612;DHT22;19030;49.478;8.986;2023-01-15T10:37:04;6.20;99.90
32612;DHT22;19030;49.478;8.986;2023-01-15T10:39:18;6.20;99.90
32612;DHT22;19030;49.478;8.986;2023-01-15T10:46:21;6.20;99.90
32612;DHT22;19030;49.478;8.986;2023-01-15T10:50:26;6.10;99.90
32612;DHT22;19030;49.478;8.986;2023-01-15T10:52:30;6.10;99.90
32612;DHT22;19030;49.478;8.986;2023-01-15T10:54:37;6.10;99.90
32612;DHT22;19030;49.478;8.986;2023-01-15T10:59:00;6.20;99.90
32612;DHT22;19030;49.478;8.986;2023-01-15T11:01:10;6.20;99.90
32612;DHT22;19030;49.478;8.986;2023-01-15T11:03:16;6.20;99.90
32612;DHT22;19030;49.478;8.986;2023-01-15T11:05:20;6.20;99.90
32612;DHT22;19030;49.478;8.986;2023-01-15T11:07:25;6.10;99.90
32612;DHT22;19030;49.478;8.986;2023-01-15T11:09:29;6.10;99.90
32612;DHT22;19030;49.478;8.986;2023-01-15T11:11:45;5.90;99.90
32612;DHT22;19030;49.478;8.986;2023-01-15T11:13:59;5.70;99.90
32612;DHT22;19030;49.478;8.986;2023-01-15T11:16:24;5.50;99.90
32612;DHT22;19030;49.478;8.986;2023-01-15T11:18:42;5.40;99.90
32612;DHT22;19030;49.478;8.986;2023-01-15T11:21:02;5.20;99.90
32612;DHT22;19030;49.478;8.986;2023-01-15T11:23:11;5.10;99.90
32612;DHT22;19030;49.478;8.986;2023-01-15T11:25:13;5.20;99.90
32612;DHT22;19030;49.478;8.986;2023-01-15T11:27:27;5.10;99.90
32612;DHT22;19030;49.478;8.986;2023-01-15T11:29:34;5.10;99.90
32612;DHT22;19030;49.478;8.986;2023-01-15T11:31:39;5.10;99.90
32612;DHT22;19030;49.478;8.986;2023-01-15T11:33:59;5.10;99.90
32612;DHT22;19030;49.478;8.986;2023-01-15T11:36:03;5.10;99.90
32612;DHT22;19030;49.478;8.986;2023-01-15T11:38:06;5.10;99.90
32612;DHT22;19030;49.478;8.986;2023-01-15T11:40:19;5.10;99.90
32612;DHT22;19030;49.478;8.986;2023-01-15T11:42:19;5.00;99.90
32612;DHT22;19030;49.478;8.986;2023-01-15T11:44:39;5.10;99.90
32612;DHT22;19030;49.478;8.986;2023-01-15T11:46:58;5.10;99.90
32612;DHT22;19030;49.478;8.986;2023-01-15T11:49:19;5.10;99.90
32612;DHT22;19030;49.478;8.986;2023-01-15T11:51:46;5.10;99.90
32612;DHT22;19030;49.478;8.986;2023-01-15T11:53:54;5.00;99.90
32612;DHT22;19030;49.478;8.986;2023-01-15T11:56:04;5.00;99.90
32612;DHT22;19030;49.478;8.986;2023-01-15T11:58:08;5.00;99.90
32612;DHT22;19030;49.478;8.986;2023-01-15T12:00:27;5.00;99.90
32612;DHT22;19030;49.478;8.986;2023-01-15T12:02:34;5.10;99.90
32612;DHT22;19030;49.478;8.986;2023-01-15T12:04:57;5.10;99.90
32612;DHT22;19030;49.478;8.986;2023-01-15T12:07:00;5.10;99.90
32612;DHT22;19030;49.478;8.986;2023-01-15T12:11:30;5.10;99.90
32612;DHT22;19030;49.478;8.986;2023-01-15T12:17:58;5.00;99.90
32612;DHT22;19030;49.478;8.986;2023-01-15T12:20:23;5.00;99.90
32612;DHT22;19030;49.478;8.986;2023-01-15T12:29:20;5.20;99.90
32612;DHT22;19030;49.478;8.986;2023-01-15T12:31:28;5.10;99.90
32612;DHT22;19030;49.478;8.986;2023-01-15T12:33:48;5.20;99.90
32612;DHT22;19030;49.478;8.986;2023-01-15T12:37:01;5.20;99.90
32612;DHT22;19030;49.478;8.986;2023-01-15T12:40:48;5.20;99.90
32612;DHT22;19030;49.478;8.986;2023-01-15T12:42:52;5.10;99.90
32612;DHT22;19030;49.478;8.986;2023-01-15T12:45:19;5.10;99.90
32612;DHT22;19030;49.478;8.986;2023-01-15T12:49:52;4.80;99.90
32612;DHT22;19030;49.478;8.986;2023-01-15T12:52:10;4.80;99.90
32612;DHT22;19030;49.478;8.986;2023-01-15T12:54:15;4.70;99.90
32612;DHT22;19030;49.478;8.986;2023-01-15T12:56:28;4.80;99.90
32612;DHT22;19030;49.478;8.986;2023-01-15T12:58:43;4.90;99.90
32612;DHT22;19030;49.478;8.986;2023-01-15T13:00:44;4.90;99.90
32612;DHT22;19030;49.478;8.986;2023-01-15T13:07:32;5.00;99.90
32612;DHT22;19030;49.478;8.986;2023-01-15T13:09:43;5.00;99.90
32612;DHT22;19030;49.478;8.986;2023-01-15T13:11:44;4.90;99.90
32612;DHT22;19030;49.478;8.986;2023-01-15T13:13:45;5.00;99.90
32612;DHT22;19030;49.478;8.986;2023-01-15T13:16:21;5.10;99.90
32612;DHT22;19030;49.478;8.986;2023-01-15T13:20:47;5.80;99.90
32612;DHT22;19030;49.478;8.986;2023-01-15T13:23:30;6.20;99.90
32612;DHT22;19030;49.478;8.986;2023-01-15T13:25:41;6.70;99.90
32612;DHT22;19030;49.478;8.986;2023-01-15T13:28:12;7.30;99.90
32612;DHT22;19030;49.478;8.986;2023-01-15T13:30:44;7.70;99.90
32612;DHT22;19030;49.478;8.986;2023-01-15T13:32:54;7.90;99.90
32612;DHT22;19030;49.478;8.986;2023-01-15T13:35:13;8.00;99.90
32612;DHT22;19030;49.478;8.986;2023-01-15T13:39:24;7.80;99.90
32612;DHT22;19030;49.478;8.986;2023-01-15T13:41:30;7.70;99.90
32612;DHT22;19030;49.478;8.986;2023-01-15T13:43:51;7.90;99.90
32612;DHT22;19030;49.478;8.986;2023-01-15T13:45:56;8.20;99.90
32612;DHT22;19030;49.478;8.986;2023-01-15T13:48:05;8.20;99.90
32612;DHT22;19030;49.478;8.986;2023-01-15T13:50:18;8.10;99.90
32612;DHT22;19030;49.478;8.986;2023-01-15T13:54:30;8.40;99.90
32612;DHT22;19030;49.478;8.986;2023-01-15T13:56:32;8.60;99.90
32612;DHT22;19030;49.478;8.986;2023-01-15T13:58:50;8.80;99.90
32612;DHT22;19030;49.478;8.986;2023-01-15T14:01:07;8.60;99.90
32612;DHT22;19030;49.478;8.986;2023-01-15T14:03:35;8.60;99.90
32612;DHT22;19030;49.478;8.986;2023-01-15T14:05:38;9.20;99.90
32612;DHT22;19030;49.478;8.986;2023-01-15T14:07:39;9.50;99.90
32612;DHT22;19030;49.478;8.986;2023-01-15T14:09:39;9.60;99.90
32612;DHT22;19030;49.478;8.986;2023-01-15T14:14:24;9.20;99.90
32612;DHT22;19030;49.478;8.986;2023-01-15T14:16:39;8.90;99.90
32612;DHT22;19030;49.478;8.986;2023-01-15T14:31:02;6.90;99.90
32612;DHT22;19030;49.478;8.986;2023-01-15T14:33:26;6.80;99.90
32612;DHT22;19030;49.478;8.986;2023-01-15T14:35:35;6.60;99.90
32612;DHT22;19030;49.478;8.986;2023-01-15T14:37:46;6.60;99.90
32612;DHT22;19030;49.478;8.986;2023-01-15T14:39:53;6.50;99.90
32612;DHT22;19030;49.478;8.986;2023-01-15T14:42:10;6.40;99.90
32612;DHT22;19030;49.478;8.986;2023-01-15T14:44:32;6.30;99.90
32612;DHT22;19030;49.478;8.986;2023-01-15T14:46:34;6.40;99.90
32612;DHT22;19030;49.478;8.986;2023-01-15T14:48:38;6.40;99.90